Terminal Aerodrome Forecast
Issued by NWS Upton, NY

Home | Current Version | Previous Version | Text Only | Print | Product List | Glossary On
Versions: 1 2 3 4 5 6 7 8 9 10 11 12 13 14 15 16 17 18 19 20 21 22 23 24 25 26
000
FTUS41 KOKX 271100
TAFBDR
TAF
KBDR 271132Z 2712/2812 01024G37KT 1/2SM SN FZFG OVC012
     FM271500 35023G34KT 1SM -SN BLSN OVC015
     FM280000 34016G27KT 2SM -SN BLSN OVC020
     FM280300 33012G21KT 2SM -SHSN OVC035=

USA.gov is the U.S. government's official web portal to all federal, state and local government web resources and services.